Petersburg, Virginia
Current Conditions -  °F | °C
As of 12:35 PM on Friday 19 Dec 2014 (Local Time) from KPTB Reporting Station
Clear Clear  
Wind Chill: 42°   Ceiling: Unl
Heat Index: 45°   Visibility: 10mi
Dew Point: 25°   Wind: 6mph
Humidity: 45%   Direction: 270°W
Pressure: 30.14"   Gusts: NA
Location:  37.23°N, 77.4°W
Report Text: KPTB 191735Z AUTO 27005KT 10SM CLR 07/M04 A3014 RMK AO2 T00741039
Loading
Personal Weather Stations






























Interactive Weather Map New forecast layout! Learn more

10-Day Weather Forecast

Advertisements
Track Severe Weather on mobile